Time;durP1;ratioP1;P1;durP2;ratioP2;P2;SDS_P1;SDS_P2;PMS_P1;PMS_P2;Temp;Humidity;BMP_temperature;BMP_pressure;BME280_temperature;BME280_humidity;BME280_pressure;Samples;Min_cycle;Max_cycle;Signal;HPM_P1;HPM_P2
2022/08/04 00:00:33;;;;;;;1.65;0.80;;;23.60;90.50;;;;;;5074908;28;20218;-75
2022/08/04 00:03:12;;;;;;;0.73;0.73;;;23.60;90.20;;;;;;5075133;28;20190;-76
2022/08/04 00:05:52;;;;;;;1.00;0.90;;;23.60;90.40;;;;;;5074861;28;20197;-75
2022/08/04 00:08:28;;;;;;;0.80;0.80;;;23.60;90.30;;;;;;5074271;28;20555;-76
2022/08/04 00:10:58;;;;;;;0.50;0.50;;;23.60;89.70;;;;;;5074693;28;20222;-76
2022/08/04 00:13:27;;;;;;;0.70;0.70;;;23.60;89.60;;;;;;5075394;28;20194;-76
2022/08/04 00:15:59;;;;;;;0.68;0.68;;;23.60;90.30;;;;;;5074484;28;20202;-76
2022/08/04 00:18:29;;;;;;;0.98;0.60;;;23.70;90.40;;;;;;5074582;28;20210;-75
2022/08/04 00:21:00;;;;;;;0.60;0.60;;;23.70;90.60;;;;;;5074652;28;20218;-76
2022/08/04 00:23:27;;;;;;;0.70;0.70;;;23.60;90.60;;;;;;5074451;28;20279;-76
2022/08/04 00:25:55;;;;;;;3.35;0.90;;;23.60;90.80;;;;;;5074046;28;20677;-75
2022/08/04 00:28:22;;;;;;;0.60;0.60;;;23.60;91.00;;;;;;5074313;28;20205;-76
2022/08/04 00:30:49;;;;;;;0.77;0.63;;;23.50;91.30;;;;;;5074227;28;20313;-75
2022/08/04 00:33:20;;;;;;;1.33;0.60;;;23.40;91.50;;;;;;5074239;28;20220;-76
2022/08/04 00:35:48;;;;;;;0.82;0.70;;;23.40;91.70;;;;;;5074264;28;20263;-75
2022/08/04 00:38:16;;;;;;;0.70;0.63;;;23.40;92.20;;;;;;5074063;28;20225;-75
2022/08/04 00:40:50;;;;;;;0.70;0.70;;;23.30;92.00;;;;;;5073821;28;20266;-75
2022/08/04 00:43:27;;;;;;;0.80;0.70;;;23.20;92.60;;;;;;5074114;28;20195;-75
2022/08/04 00:46:27;;;;;;;0.55;0.55;;;23.20;92.50;;;;;;5074097;28;20268;-75
2022/08/04 00:49:13;;;;;;;0.83;0.83;;;23.10;92.40;;;;;;5073702;28;20182;-75
2022/08/04 00:51:49;;;;;;;0.80;0.63;;;23.10;92.40;;;;;;5073979;28;20189;-75
2022/08/04 00:54:23;;;;;;;3.33;0.50;;;23.00;92.40;;;;;;5073951;28;20548;-75
2022/08/04 00:57:31;;;;;;;0.60;0.60;;;22.90;92.60;;;;;;5073845;28;20568;-75
2022/08/04 01:00:06;;;;;;;0.70;0.70;;;22.90;92.80;;;;;;5011819;28;20231;-75
2022/08/04 01:02:37;;;;;;;0.70;0.60;;;22.80;92.60;;;;;;5067451;28;20224;-75
2022/08/04 01:05:11;;;;;;;0.50;0.50;;;22.80;92.70;;;;;;5073774;28;20187;-75
2022/08/04 01:07:57;;;;;;;0.70;0.70;;;22.80;92.90;;;;;;5073426;28;20197;-75
2022/08/04 01:10:32;;;;;;;4.20;0.60;;;22.80;92.10;;;;;;5073635;28;20253;-75
2022/08/04 01:13:25;;;;;;;0.70;0.50;;;22.90;92.20;;;;;;5073342;28;20644;-75
2022/08/04 01:16:02;;;;;;;1.07;0.60;;;22.90;92.90;;;;;;5073662;28;20186;-75
2022/08/04 01:18:35;;;;;;;1.23;0.60;;;22.90;93.00;;;;;;5072915;28;20916;-75
2022/08/04 01:21:37;;;;;;;0.90;0.70;;;22.90;93.10;;;;;;5073404;28;20226;-75
2022/08/04 01:24:24;;;;;;;1.07;0.63;;;22.90;92.90;;;;;;5073488;28;20212;-75
2022/08/04 01:26:55;;;;;;;0.57;0.57;;;22.90;92.20;;;;;;5073545;28;20182;-75
2022/08/04 01:29:26;;;;;;;0.67;0.53;;;22.90;92.30;;;;;;5073680;28;20189;-75
2022/08/04 01:32:04;;;;;;;0.50;0.50;;;22.90;92.50;;;;;;5073145;28;20548;-75
2022/08/04 01:34:35;;;;;;;0.50;0.50;;;22.80;92.30;;;;;;5073410;28;20201;-75
2022/08/04 01:37:11;;;;;;;0.63;0.63;;;22.80;92.50;;;;;;5073551;28;20469;-75
2022/08/04 01:39:48;;;;;;;0.80;0.80;;;22.80;92.70;;;;;;5073574;28;20218;-75
2022/08/04 01:42:18;;;;;;;1.17;0.73;;;22.80;92.40;;;;;;5073178;28;20480;-75
2022/08/04 01:44:48;;;;;;;0.60;0.57;;;22.80;92.50;;;;;;5072964;28;20936;-75
2022/08/04 01:47:17;;;;;;;1.63;0.80;;;22.70;92.70;;;;;;5073032;28;20205;-75
2022/08/04 01:49:48;;;;;;;0.77;0.50;;;22.70;92.80;;;;;;5073178;28;20475;-75
2022/08/04 01:52:18;;;;;;;1.90;0.60;;;22.60;93.60;;;;;;5073232;28;20431;-75
2022/08/04 01:54:47;;;;;;;0.80;0.60;;;22.60;94.00;;;;;;5073164;28;20202;-75
2022/08/04 01:57:18;;;;;;;0.70;0.70;;;22.50;93.70;;;;;;5072872;28;20225;-75
2022/08/04 01:59:49;;;;;;;0.50;0.50;;;22.50;93.90;;;;;;5073090;28;20463;-75
2022/08/04 02:02:16;;;;;;;0.50;0.50;;;22.40;94.10;;;;;;5073151;28;20852;-75
2022/08/04 02:04:43;;;;;;;0.60;0.60;;;22.40;93.30;;;;;;5073027;28;20432;-75
2022/08/04 02:07:40;;;;;;;0.63;0.50;;;22.30;93.10;;;;;;5072747;28;20951;-75
2022/08/04 02:10:17;;;;;;;0.70;0.70;;;22.30;93.10;;;;;;5071946;28;20526;-75
2022/08/04 02:12:56;;;;;;;0.60;0.60;;;22.20;94.00;;;;;;5073008;28;20924;-75
2022/08/04 02:15:36;;;;;;;2.43;0.57;;;22.10;94.10;;;;;;5073041;28;20462;-75
2022/08/04 02:18:05;;;;;;;0.60;0.60;;;22.10;94.60;;;;;;5072931;28;20471;-75
2022/08/04 02:20:35;;;;;;;0.90;0.60;;;22.10;94.30;;;;;;5072899;28;20865;-75
2022/08/04 02:23:09;;;;;;;0.60;0.60;;;22.00;94.80;;;;;;5072916;28;20480;-75
2022/08/04 02:25:41;;;;;;;0.40;0.40;;;22.00;94.10;;;;;;5072947;28;20425;-75
2022/08/04 02:28:19;;;;;;;0.80;0.70;;;21.90;94.20;;;;;;5072911;28;20435;-75
2022/08/04 02:30:57;;;;;;;0.97;0.50;;;21.90;94.00;;;;;;5074400;28;20459;-75
2022/08/04 02:33:31;;;;;;;0.50;0.47;;;21.80;94.20;;;;;;5076572;28;20834;-75
2022/08/04 02:36:01;;;;;;;0.50;0.50;;;21.80;94.10;;;;;;5076576;28;20792;-75
2022/08/04 02:38:40;;;;;;;0.73;0.67;;;21.70;94.40;;;;;;5076553;28;20479;-75
2022/08/04 02:41:09;;;;;;;0.73;0.70;;;21.70;94.50;;;;;;5076225;28;20490;-75
2022/08/04 02:43:38;;;;;;;0.70;0.70;;;21.70;94.50;;;;;;5076372;28;20450;-75
2022/08/04 02:46:06;;;;;;;0.50;0.50;;;21.70;94.40;;;;;;5076350;28;20448;-75
2022/08/04 02:48:36;;;;;;;0.63;0.63;;;21.70;94.60;;;;;;5076891;28;20444;-75
2022/08/04 02:51:05;;;;;;;1.57;0.60;;;21.60;94.80;;;;;;5076445;28;20539;-75
2022/08/04 02:53:36;;;;;;;0.90;0.60;;;21.60;94.70;;;;;;5076187;28;20456;-75
2022/08/04 02:56:04;;;;;;;0.70;0.70;;;21.60;95.00;;;;;;5076160;28;20893;-75
2022/08/04 02:58:35;;;;;;;1.37;0.60;;;21.60;95.10;;;;;;5075726;28;20486;-75
2022/08/04 03:01:02;;;;;;;0.50;0.50;;;21.50;94.90;;;;;;5076045;28;20494;-75
2022/08/04 03:03:38;;;;;;;1.77;0.90;;;21.40;95.40;;;;;;5075685;28;20951;-75
2022/08/04 03:06:39;;;;;;;0.70;0.70;;;21.40;95.60;;;;;;5075865;28;20943;-75
2022/08/04 03:09:38;;;;;;;0.73;0.60;;;21.40;95.90;;;;;;5075693;28;20918;-75
2022/08/04 03:12:34;;;;;;;0.93;0.70;;;21.30;95.60;;;;;;5075909;28;20421;-75
2022/08/04 03:15:35;;;;;;;0.60;0.60;;;21.40;95.60;;;;;;5075868;28;20433;-75
2022/08/04 03:18:21;;;;;;;0.70;0.67;;;21.30;95.80;;;;;;5075776;28;20461;-75
2022/08/04 03:21:15;;;;;;;1.50;0.57;;;21.30;96.60;;;;;;5075700;28;20467;-75
2022/08/04 03:24:24;;;;;;;0.70;0.70;;;21.30;96.60;;;;;;5075359;28;20448;-75
2022/08/04 03:27:11;;;;;;;1.17;0.70;;;21.30;96.60;;;;;;5075614;28;20787;-75
2022/08/04 03:30:06;;;;;;;0.70;0.60;;;21.20;96.60;;;;;;5075361;28;20479;-75
2022/08/04 03:32:58;;;;;;;1.27;0.80;;;21.20;96.90;;;;;;5075475;28;20531;-75
2022/08/04 03:36:05;;;;;;;0.80;0.70;;;21.20;96.90;;;;;;5075132;28;20452;-75
2022/08/04 03:39:07;;;;;;;0.50;0.50;;;21.10;97.20;;;;;;5049693;28;20491;-75
2022/08/04 03:41:48;;;;;;;0.80;0.70;;;21.10;97.60;;;;;;5074949;28;20494;-75
2022/08/04 03:44:42;;;;;;;0.90;0.70;;;21.00;97.80;;;;;;5074950;28;20435;-75
2022/08/04 03:47:32;;;;;;;1.13;0.90;;;21.10;98.10;;;;;;5075276;28;20413;-75
2022/08/04 03:50:34;;;;;;;0.60;0.60;;;21.00;98.30;;;;;;5074891;28;20456;-75
2022/08/04 03:53:24;;;;;;;1.07;0.90;;;21.00;98.40;;;;;;5074818;28;20922;-75
2022/08/04 03:56:14;;;;;;;0.60;0.60;;;21.00;99.00;;;;;;5075315;28;20429;-75
2022/08/04 03:58:55;;;;;;;2.80;1.03;;;21.00;99.20;;;;;;5074945;28;20467;-75
2022/08/04 04:01:43;;;;;;;0.80;0.70;;;21.00;99.10;;;;;;5075172;28;20468;-75
2022/08/04 04:04:37;;;;;;;0.73;0.73;;;20.90;99.50;;;;;;5074924;28;20435;-75
2022/08/04 04:07:41;;;;;;;1.00;1.00;;;20.90;99.70;;;;;;5074898;28;20746;-75
2022/08/04 04:10:34;;;;;;;0.70;0.60;;;20.90;99.90;;;;;;5074673;28;20464;-75
2022/08/04 04:13:33;;;;;;;1.73;1.00;;;20.80;99.90;;;;;;5074688;28;20440;-75
2022/08/04 04:16:18;;;;;;;1.00;0.97;;;20.80;99.90;;;;;;5074613;28;20467;-75
2022/08/04 04:18:59;;;;;;;1.67;0.93;;;20.80;99.90;;;;;;5074245;28;20460;-75
2022/08/04 04:21:50;;;;;;;0.63;0.63;;;20.80;99.90;;;;;;5074453;28;20468;-75
2022/08/04 04:24:53;;;;;;;0.77;0.77;;;20.80;99.90;;;;;;5074165;28;20931;-75
2022/08/04 04:27:34;;;;;;;0.80;0.80;;;20.80;99.90;;;;;;5038246;28;20977;-75
2022/08/04 04:30:05;;;;;;;1.07;0.60;;;20.80;99.90;;;;;;5074026;28;20470;-75
2022/08/04 04:32:43;;;;;;;0.70;0.53;;;20.80;99.90;;;;;;5074056;28;20799;-75
2022/08/04 04:35:23;;;;;;;1.03;0.83;;;20.80;99.90;;;;;;5074290;28;20457;-75
2022/08/04 04:38:05;;;;;;;0.80;0.60;;;20.80;99.90;;;;;;5074158;28;20496;-75
2022/08/04 04:40:43;;;;;;;0.77;0.77;;;20.90;99.90;;;;;;5073866;28;20479;-75
2022/08/04 04:43:21;;;;;;;0.73;0.73;;;20.90;99.90;;;;;;5073896;28;20934;-75
2022/08/04 04:45:58;;;;;;;0.80;0.53;;;21.00;99.90;;;;;;5074104;28;20421;-75
2022/08/04 04:48:36;;;;;;;0.90;0.73;;;21.00;99.90;;;;;;5074064;28;20431;-75
2022/08/04 04:51:10;;;;;;;0.93;0.70;;;21.00;99.90;;;;;;5073947;28;20463;-75
2022/08/04 04:53:46;;;;;;;0.87;0.70;;;21.00;99.90;;;;;;5073422;28;20825;-75
2022/08/04 04:56:19;;;;;;;0.90;0.70;;;21.00;99.90;;;;;;5073881;28;20443;-75
2022/08/04 04:58:46;;;;;;;0.70;0.70;;;21.10;99.90;;;;;;5073788;28;20468;-76
2022/08/04 05:01:50;;;;;;;0.90;0.90;;;21.10;99.90;;;;;;5073933;28;20472;-75
2022/08/04 05:04:40;;;;;;;1.30;0.73;;;21.10;99.90;;;;;;5073789;28;20433;-76
2022/08/04 05:07:27;;;;;;;1.10;0.80;;;21.20;99.90;;;;;;5060742;28;20448;-76
2022/08/04 05:10:06;;;;;;;0.80;0.80;;;21.20;99.90;;;;;;5073632;28;20472;-76
2022/08/04 05:13:00;;;;;;;0.60;0.60;;;21.30;99.90;;;;;;5073647;28;20923;-76
2022/08/04 05:15:30;;;;;;;1.17;0.80;;;21.30;99.90;;;;;;5073338;28;20433;-76
2022/08/04 05:18:00;;;;;;;2.93;0.67;;;21.30;99.90;;;;;;5073522;28;20472;-76
2022/08/04 05:20:33;;;;;;;1.10;1.00;;;21.30;99.90;;;;;;5073461;28;20842;-76
2022/08/04 05:23:04;;;;;;;1.03;0.60;;;21.40;99.90;;;;;;5073239;28;20912;-76
2022/08/04 05:25:39;;;;;;;1.73;0.93;;;21.40;99.90;;;;;;5073512;28;20428;-76
2022/08/04 05:28:12;;;;;;;0.70;0.70;;;21.50;99.90;;;;;;5073186;28;20896;-76
2022/08/04 05:30:47;;;;;;;1.10;1.10;;;21.50;99.90;;;;;;5073323;28;20967;-77
2022/08/04 05:33:18;;;;;;;0.80;0.80;;;21.60;99.90;;;;;;5073457;28;20501;-77
2022/08/04 05:35:49;;;;;;;1.10;0.80;;;21.60;99.90;;;;;;5073343;28;20409;-77
2022/08/04 05:38:22;;;;;;;0.80;0.70;;;21.70;99.90;;;;;;5073575;28;20533;-77
2022/08/04 05:40:50;;;;;;;1.03;0.97;;;21.70;99.90;;;;;;5073094;28;20483;-77
2022/08/04 05:43:17;;;;;;;1.80;0.93;;;21.80;99.90;;;;;;5073280;28;20440;-77
2022/08/04 05:45:47;;;;;;;1.23;0.80;;;21.80;99.90;;;;;;5073088;28;20973;-76
2022/08/04 05:48:15;;;;;;;2.03;1.20;;;21.90;99.90;;;;;;5073389;28;20449;-76
2022/08/04 05:50:43;;;;;;;1.50;0.93;;;22.00;99.90;;;;;;5072869;28;20474;-77
2022/08/04 05:53:11;;;;;;;0.80;0.80;;;22.00;99.90;;;;;;5073226;28;20448;-77
2022/08/04 05:55:37;;;;;;;0.80;0.80;;;22.10;99.90;;;;;;5073215;28;20440;-77
2022/08/04 05:58:05;;;;;;;0.90;0.80;;;22.20;99.90;;;;;;5072719;28;20487;-77
2022/08/04 06:00:33;;;;;;;0.60;0.60;;;22.20;99.90;;;;;;5073100;28;20475;-77
2022/08/04 06:03:01;;;;;;;0.80;0.80;;;22.40;99.90;;;;;;5073032;28;20447;-77
2022/08/04 06:05:29;;;;;;;1.43;1.23;;;22.50;99.90;;;;;;5074053;28;20439;-77
2022/08/04 06:07:56;;;;;;;0.80;0.80;;;22.70;99.90;;;;;;5077077;28;20456;-77
2022/08/04 06:10:24;;;;;;;1.17;1.17;;;23.00;99.90;;;;;;5077501;28;20464;-77
2022/08/04 06:12:55;;;;;;;1.13;1.03;;;23.20;99.90;;;;;;5076991;28;20213;-77
2022/08/04 06:15:24;;;;;;;1.00;0.97;;;23.40;99.90;;;;;;5076990;28;20458;-77
2022/08/04 06:17:55;;;;;;;1.10;1.00;;;23.50;99.90;;;;;;5076833;28;20206;-77
2022/08/04 06:20:26;;;;;;;0.77;0.63;;;23.80;99.90;;;;;;5076986;28;20225;-77
2022/08/04 06:22:57;;;;;;;0.77;0.77;;;23.90;99.90;;;;;;5076870;28;20209;-77
2022/08/04 06:25:32;;;;;;;1.50;1.27;;;24.10;99.90;;;;;;5077136;28;20193;-76
2022/08/04 06:28:00;;;;;;;2.05;1.27;;;24.30;99.90;;;;;;5076959;28;20621;-78
2022/08/04 06:30:28;;;;;;;1.10;0.90;;;24.40;99.90;;;;;;5076584;28;20221;-77
2022/08/04 06:32:56;;;;;;;1.15;0.88;;;24.60;99.90;;;;;;5076636;28;20198;-77
2022/08/04 06:35:25;;;;;;;1.20;0.98;;;24.70;99.90;;;;;;5076319;28;20186;-77
2022/08/04 06:37:54;;;;;;;1.00;1.00;;;24.90;99.90;;;;;;5076423;28;20198;-77
2022/08/04 06:40:24;;;;;;;2.88;1.02;;;25.10;99.90;;;;;;5076259;28;20222;-78
2022/08/04 06:42:52;;;;;;;4.78;0.80;;;25.20;99.90;;;;;;5076119;28;20673;-77
2022/08/04 06:45:20;;;;;;;1.42;1.10;;;25.30;99.90;;;;;;5076359;28;20209;-77
2022/08/04 06:47:48;;;;;;;0.95;0.88;;;25.40;99.90;;;;;;5076333;28;20209;-77
2022/08/04 06:50:16;;;;;;;1.33;1.00;;;25.50;99.90;;;;;;5075941;28;20589;-78
2022/08/04 06:52:44;;;;;;;1.17;0.95;;;25.60;99.90;;;;;;5075919;28;20206;-77
2022/08/04 06:55:13;;;;;;;1.20;1.10;;;25.80;99.90;;;;;;5075905;28;20217;-77
2022/08/04 06:57:41;;;;;;;1.15;1.05;;;26.00;99.50;;;;;;5075906;28;20190;-78
2022/08/04 07:00:10;;;;;;;0.80;0.70;;;26.10;99.70;;;;;;5076000;28;20229;-78
2022/08/04 07:02:40;;;;;;;0.85;0.80;;;26.20;99.90;;;;;;5076019;28;20208;-78
2022/08/04 07:05:08;;;;;;;0.93;0.93;;;26.40;99.10;;;;;;5075971;28;20690;-78
2022/08/04 07:07:35;;;;;;;1.10;0.73;;;26.60;98.60;;;;;;5075892;28;20677;-78
2022/08/04 07:10:03;;;;;;;1.10;1.00;;;26.80;98.10;;;;;;5075647;28;20701;-78
2022/08/04 07:12:32;;;;;;;1.20;0.85;;;26.90;97.70;;;;;;5075600;28;20209;-78
2022/08/04 07:14:59;;;;;;;0.90;0.90;;;27.00;96.60;;;;;;5075788;28;20206;-78
2022/08/04 07:17:28;;;;;;;1.00;0.90;;;27.10;97.10;;;;;;5075204;28;20210;-78
2022/08/04 07:19:55;;;;;;;1.15;0.95;;;27.20;96.50;;;;;;5075621;28;20257;-78
2022/08/04 07:22:24;;;;;;;1.15;0.80;;;27.30;96.30;;;;;;5075416;28;20703;-78
2022/08/04 07:24:54;;;;;;;1.00;1.00;;;27.40;96.10;;;;;;5075694;28;20205;-78
2022/08/04 07:27:21;;;;;;;0.95;0.70;;;27.50;95.90;;;;;;5075647;28;20190;-79
2022/08/04 07:29:49;;;;;;;3.50;1.08;;;27.70;94.90;;;;;;5075474;28;20225;-78
2022/08/04 07:32:18;;;;;;;1.00;0.80;;;27.90;95.20;;;;;;5075576;28;20213;-78
2022/08/04 07:34:46;;;;;;;1.00;1.00;;;28.10;94.90;;;;;;5075472;28;20224;-78
2022/08/04 07:37:14;;;;;;;0.85;0.60;;;28.20;93.10;;;;;;5075373;28;20546;-78
2022/08/04 07:39:41;;;;;;;0.88;0.70;;;28.30;92.50;;;;;;5075306;28;20230;-79
2022/08/04 07:42:08;;;;;;;0.90;0.90;;;28.40;92.50;;;;;;5074774;28;20570;-78
2022/08/04 07:44:36;;;;;;;0.90;0.80;;;28.60;92.90;;;;;;5075263;28;20206;-78
2022/08/04 07:47:07;;;;;;;0.77;0.77;;;28.70;93.40;;;;;;5075210;28;20209;-78
2022/08/04 07:49:35;;;;;;;0.70;0.70;;;28.80;92.00;;;;;;5075654;28;20222;-78
2022/08/04 07:52:02;;;;;;;0.95;0.80;;;29.00;92.50;;;;;;5075101;28;20206;-78
2022/08/04 07:54:29;;;;;;;1.30;0.70;;;29.00;91.70;;;;;;5074783;28;20681;-78
2022/08/04 07:56:57;;;;;;;0.80;0.80;;;29.10;92.30;;;;;;5074721;28;20814;-78
2022/08/04 07:59:24;;;;;;;0.80;0.80;;;29.20;91.60;;;;;;5074846;28;20263;-78
2022/08/04 08:01:51;;;;;;;0.80;0.80;;;29.30;91.40;;;;;;5074633;28;20613;-78
2022/08/04 08:04:20;;;;;;;1.00;0.70;;;29.40;90.20;;;;;;5074850;28;20205;-78
2022/08/04 08:06:47;;;;;;;0.85;0.60;;;29.60;89.60;;;;;;5074832;28;20213;-78
2022/08/04 08:09:16;;;;;;;0.90;0.75;;;29.70;89.30;;;;;;5074679;28;20201;-78
2022/08/04 08:11:45;;;;;;;0.70;0.60;;;30.00;89.10;;;;;;5074469;28;20756;-78
2022/08/04 08:14:13;;;;;;;0.73;0.73;;;30.50;85.50;;;;;;5074726;28;20656;-78
2022/08/04 08:16:40;;;;;;;0.70;0.60;;;30.70;84.20;;;;;;5074654;28;20205;-78
2022/08/04 08:19:07;;;;;;;0.90;0.90;;;31.10;83.10;;;;;;5074182;28;20227;-78
2022/08/04 08:21:35;;;;;;;0.80;0.80;;;31.30;81.60;;;;;;5074496;28;20223;-78
2022/08/04 08:24:02;;;;;;;0.55;0.55;;;31.40;80.80;;;;;;5074477;28;20214;-78
2022/08/04 08:26:30;;;;;;;0.93;0.75;;;31.50;79.40;;;;;;5074508;28;20570;-78
2022/08/04 08:28:57;;;;;;;0.65;0.65;;;31.40;80.30;;;;;;5073313;28;20202;-78
2022/08/04 08:31:23;;;;;;;0.90;0.90;;;31.50;81.00;;;;;;5074252;28;20228;-78
2022/08/04 08:33:52;;;;;;;0.75;0.75;;;31.40;79.90;;;;;;5074336;28;20207;-78
2022/08/04 08:36:23;;;;;;;0.60;0.60;;;31.40;80.80;;;;;;5074316;28;20183;-79
2022/08/04 08:39:00;;;;;;;0.90;0.90;;;31.30;80.10;;;;;;5074279;28;20590;-77
2022/08/04 08:42:05;;;;;;;0.98;0.70;;;31.30;79.70;;;;;;5073917;28;20265;-78
2022/08/04 08:45:05;;;;;;;0.73;0.73;;;31.40;78.30;;;;;;5058382;28;20213;-77
2022/08/04 08:47:51;;;;;;;0.80;0.80;;;31.50;78.60;;;;;;5073796;28;20195;-77
2022/08/04 08:50:49;;;;;;;0.93;0.93;;;31.60;77.90;;;;;;5073150;28;20636;-77
2022/08/04 08:53:33;;;;;;;0.70;0.70;;;31.60;77.00;;;;;;5074036;28;20192;-80
2022/08/04 08:56:16;;;;;;;1.08;0.80;;;31.70;78.30;;;;;;5074695;28;20200;-78
2022/08/04 08:58:55;;;;;;;0.80;0.80;;;31.70;78.50;;;;;;5074196;28;20189;-77
2022/08/04 09:01:40;;;;;;;0.98;0.77;;;31.90;77.90;;;;;;5073787;28;20223;-77
2022/08/04 09:04:38;;;;;;;0.70;0.70;;;32.00;76.30;;;;;;5073565;28;20644;-77
2022/08/04 09:07:21;;;;;;;0.88;0.60;;;32.10;76.20;;;;;;5073754;28;20195;-77
2022/08/04 09:09:54;;;;;;;1.08;1.08;;;32.30;72.80;;;;;;5073693;28;20228;-77
2022/08/04 09:12:28;;;;;;;0.70;0.70;;;32.30;73.30;;;;;;5073702;28;20189;-77
2022/08/04 09:15:04;;;;;;;1.08;0.80;;;32.30;73.90;;;;;;5073690;28;20195;-77
2022/08/04 09:17:37;;;;;;;0.70;0.70;;;32.40;71.60;;;;;;5073660;28;20294;-77
2022/08/04 09:20:09;;;;;;;0.60;0.60;;;32.60;70.50;;;;;;5073494;28;20232;-77
2022/08/04 09:22:50;;;;;;;1.13;1.02;;;33.00;72.10;;;;;;5073300;28;20654;-77
2022/08/04 09:25:24;;;;;;;0.93;0.93;;;33.30;71.70;;;;;;5073857;28;20194;-76
2022/08/04 09:27:54;;;;;;;0.75;0.70;;;33.50;69.30;;;;;;5073471;28;20189;-76
2022/08/04 09:30:26;;;;;;;0.93;0.88;;;33.50;69.50;;;;;;5073088;28;20281;-81
2022/08/04 09:33:04;;;;;;;0.63;0.63;;;33.40;70.50;;;;;;5073543;28;20186;-81
2022/08/04 09:35:40;;;;;;;0.82;0.80;;;33.30;71.40;;;;;;5074109;28;20293;-81
2022/08/04 09:38:18;;;;;;;0.80;0.80;;;33.30;68.50;;;;;;5073284;28;20193;-80
2022/08/04 09:40:51;;;;;;;0.88;0.88;;;33.20;69.60;;;;;;5072807;28;20245;-81
2022/08/04 09:43:30;;;;;;;0.80;0.77;;;33.30;68.60;;;;;;5073322;28;20183;-81
2022/08/04 09:46:04;;;;;;;0.90;0.60;;;33.30;66.30;;;;;;5073355;28;20194;-81
2022/08/04 09:48:39;;;;;;;0.80;0.70;;;33.30;64.70;;;;;;5073012;28;20528;-81
2022/08/04 09:51:24;;;;;;;0.65;0.65;;;33.30;67.60;;;;;;5073227;28;20226;-81
2022/08/04 09:54:01;;;;;;;0.80;0.80;;;33.30;66.80;;;;;;5073515;28;20189;-81
2022/08/04 09:56:34;;;;;;;0.80;0.80;;;33.40;66.40;;;;;;5073231;28;20195;-81
2022/08/04 09:59:17;;;;;;;0.90;0.90;;;33.50;63.00;;;;;;5073125;28;20189;-80
2022/08/04 10:01:46;;;;;;;1.50;0.60;;;33.50;62.90;;;;;;5072945;28;20663;-81
2022/08/04 10:04:18;;;;;;;0.80;0.80;;;33.80;61.70;;;;;;5072942;28;20206;-79
2022/08/04 10:07:02;;;;;;;1.02;1.02;;;33.90;60.80;;;;;;5073145;28;20194;-81
2022/08/04 10:09:41;;;;;;;0.90;0.75;;;34.20;59.20;;;;;;5072834;28;20632;-80
2022/08/04 10:12:29;;;;;;;0.70;0.70;;;34.20;59.80;;;;;;5075079;28;20663;-79
2022/08/04 10:15:08;;;;;;;1.25;0.80;;;34.50;57.10;;;;;;5075399;28;20202;-79
2022/08/04 10:17:43;;;;;;;0.70;0.70;;;34.60;57.90;;;;;;5073996;28;20182;-80
2022/08/04 10:20:19;;;;;;;0.73;0.73;;;34.60;56.50;;;;;;5074771;28;20558;-81
2022/08/04 10:22:56;;;;;;;0.68;0.68;;;34.60;55.70;;;;;;5073675;28;20197;-79
2022/08/04 10:25:38;;;;;;;0.88;0.88;;;34.70;56.70;;;;;;5076372;28;20182;-81
2022/08/04 10:28:09;;;;;;;0.70;0.70;;;34.60;56.60;;;;;;5073819;28;20191;-80
2022/08/04 10:30:40;;;;;;;0.60;0.60;;;34.60;56.20;;;;;;5074492;28;20254;-79
2022/08/04 10:33:12;;;;;;;0.70;0.70;;;34.50;55.40;;;;;;5075730;28;20188;-79
2022/08/04 10:35:47;;;;;;;0.60;0.60;;;34.70;56.10;;;;;;5073805;28;20191;-82
2022/08/04 10:38:20;;;;;;;0.70;0.70;;;34.70;51.70;;;;;;5072842;28;20610;-82
2022/08/04 10:40:50;;;;;;;0.65;0.65;;;34.80;53.20;;;;;;5072475;28;20232;-81
2022/08/04 10:43:27;;;;;;;0.95;0.73;;;34.80;52.00;;;;;;5072766;28;20204;-81
2022/08/04 10:46:00;;;;;;;0.70;0.70;;;34.70;52.30;;;;;;5072440;28;20202;-81
2022/08/04 10:48:40;;;;;;;1.05;0.70;;;34.80;51.90;;;;;;5072753;28;20194;-82
2022/08/04 10:51:13;;;;;;;2.13;0.70;;;34.80;52.40;;;;;;5073007;28;20221;-81
2022/08/04 10:53:43;;;;;;;0.60;0.60;;;34.80;53.20;;;;;;5076530;28;20200;-80
2022/08/04 10:56:17;;;;;;;0.60;0.60;;;34.90;52.30;;;;;;5076161;28;20294;-79
2022/08/04 10:58:51;;;;;;;0.57;0.57;;;34.90;50.20;;;;;;5076193;28;20198;-82
2022/08/04 11:01:24;;;;;;;0.60;0.60;;;35.10;52.00;;;;;;5076008;28;20314;-80
2022/08/04 11:03:57;;;;;;;0.80;0.80;;;35.70;50.20;;;;;;5076139;28;20191;-80
2022/08/04 11:06:25;;;;;;;0.60;0.60;;;36.40;49.00;;;;;;5076100;28;20189;-80
2022/08/04 11:08:55;;;;;;;0.75;0.70;;;37.20;47.70;;;;;;5075947;28;20198;-81
2022/08/04 11:11:26;;;;;;;0.70;0.70;;;37.70;47.20;;;;;;5075544;28;20729;-80
2022/08/04 11:14:00;;;;;;;0.90;0.88;;;38.00;46.80;;;;;;5075598;28;20656;-80
2022/08/04 11:16:34;;;;;;;0.70;0.70;;;38.10;46.80;;;;;;5075898;28;20572;-80
2022/08/04 11:19:10;;;;;;;1.05;1.05;;;37.70;47.20;;;;;;5075540;28;20639;-80
2022/08/04 11:21:44;;;;;;;0.63;0.63;;;37.00;48.10;;;;;;5075662;28;20238;-81
2022/08/04 11:24:17;;;;;;;0.70;0.70;;;36.70;47.70;;;;;;5075737;28;20197;-80
2022/08/04 11:26:49;;;;;;;0.98;0.80;;;36.10;48.20;;;;;;5075724;28;20193;-76
2022/08/04 11:29:24;;;;;;;0.93;0.88;;;35.70;49.80;;;;;;5075585;28;20553;-76
2022/08/04 11:31:53;;;;;;;0.82;0.82;;;35.40;48.70;;;;;;5075559;28;20188;-76
2022/08/04 11:34:22;;;;;;;0.70;0.70;;;35.20;49.80;;;;;;5075257;28;20191;-76
2022/08/04 11:36:53;;;;;;;0.65;0.65;;;35.00;50.80;;;;;;5075494;28;20210;-76
2022/08/04 11:39:27;;;;;;;0.70;0.70;;;34.90;49.60;;;;;;5074981;28;20656;-78
2022/08/04 11:42:00;;;;;;;0.70;0.70;;;34.80;50.90;;;;;;5075190;28;20234;-78
2022/08/04 11:44:31;;;;;;;0.75;0.75;;;34.70;50.40;;;;;;5075621;28;20583;-76
2022/08/04 11:47:04;;;;;;;0.70;0.70;;;34.60;50.20;;;;;;5075310;28;20199;-76
2022/08/04 11:49:37;;;;;;;0.70;0.70;;;34.60;49.30;;;;;;5075175;28;20190;-76
2022/08/04 11:52:06;;;;;;;1.38;0.70;;;34.70;49.20;;;;;;5075229;28;20565;-76
2022/08/04 11:54:35;;;;;;;0.63;0.57;;;34.60;50.50;;;;;;5075355;28;20229;-76
2022/08/04 11:57:03;;;;;;;0.80;0.70;;;34.40;51.10;;;;;;5075096;28;20209;-76
2022/08/04 11:59:33;;;;;;;0.70;0.70;;;34.30;52.90;;;;;;5074857;28;20202;-76
2022/08/04 12:02:20;;;;;;;1.05;0.75;;;34.20;53.70;;;;;;5074612;28;20210;-77
2022/08/04 12:04:57;;;;;;;0.60;0.60;;;34.10;52.90;;;;;;5075033;28;20236;-76
2022/08/04 12:07:33;;;;;;;0.80;0.80;;;34.20;51.80;;;;;;5074621;28;20185;-77
2022/08/04 12:10:11;;;;;;;0.75;0.75;;;34.30;51.30;;;;;;5074816;28;20225;-76
2022/08/04 12:12:46;;;;;;;0.80;0.80;;;34.40;51.60;;;;;;5074824;28;20557;-81
2022/08/04 12:15:20;;;;;;;0.88;0.70;;;34.50;50.40;;;;;;5074834;28;20246;-81
2022/08/04 12:17:57;;;;;;;0.68;0.68;;;34.60;50.00;;;;;;5074703;28;20193;-81
2022/08/04 12:20:27;;;;;;;0.70;0.68;;;34.50;51.30;;;;;;5074557;28;20256;-82
2022/08/04 12:22:55;;;;;;;0.70;0.70;;;34.70;49.70;;;;;;5074336;28;20201;-81
2022/08/04 12:25:28;;;;;;;1.08;0.90;;;34.60;50.90;;;;;;5074205;28;20240;-81
2022/08/04 12:27:58;;;;;;;0.90;0.80;;;34.50;52.20;;;;;;5074609;28;20698;-81
2022/08/04 12:30:25;;;;;;;0.70;0.70;;;34.40;53.00;;;;;;5074316;28;20613;-83
2022/08/04 12:33:00;;;;;;;0.70;0.70;;;34.30;52.20;;;;;;5074388;28;20209;-82
2022/08/04 12:35:31;;;;;;;0.90;0.70;;;34.20;52.80;;;;;;5074466;28;20668;-82
2022/08/04 12:38:03;;;;;;;0.80;0.80;;;34.00;57.70;;;;;;5074415;28;20199;-82
2022/08/04 12:40:33;;;;;;;0.60;0.60;;;33.90;53.80;;;;;;5074319;28;20240;-81
2022/08/04 12:43:08;;;;;;;0.85;0.85;;;33.70;53.20;;;;;;5073875;28;20672;-82
2022/08/04 12:45:36;;;;;;;1.23;0.73;;;33.70;53.60;;;;;;5075077;28;20183;-81
2022/08/04 12:48:06;;;;;;;0.70;0.70;;;33.70;53.80;;;;;;5074367;28;20192;-81
2022/08/04 12:50:35;;;;;;;3.03;0.90;;;33.80;53.00;;;;;;5073764;28;20228;-81
2022/08/04 12:53:10;;;;;;;0.80;0.80;;;33.80;52.50;;;;;;5075398;28;20564;-82
2022/08/04 12:55:43;;;;;;;1.30;0.70;;;33.80;51.90;;;;;;5075177;28;20191;-81
2022/08/04 12:58:16;;;;;;;0.90;0.90;;;33.70;52.40;;;;;;5074593;28;20635;-81
2022/08/04 13:00:46;;;;;;;0.98;0.70;;;33.70;51.90;;;;;;5075099;28;20230;-82
2022/08/04 13:03:17;;;;;;;0.73;0.73;;;33.60;53.80;;;;;;5074253;28;20215;-81
2022/08/04 13:05:45;;;;;;;1.02;0.98;;;33.40;54.00;;;;;;5073480;28;20187;-82
2022/08/04 13:08:14;;;;;;;0.70;0.70;;;33.30;53.80;;;;;;5073768;28;20232;-81
2022/08/04 13:10:43;;;;;;;0.95;0.95;;;33.20;54.30;;;;;;5073759;28;20278;-82
2022/08/04 13:13:17;;;;;;;1.85;0.80;;;33.20;52.10;;;;;;5073367;28;20211;-81
2022/08/04 13:15:53;;;;;;;0.88;0.88;;;33.30;52.10;;;;;;5073185;28;20187;-82
2022/08/04 13:18:22;;;;;;;0.90;0.80;;;33.40;51.60;;;;;;5073623;28;20190;-81
2022/08/04 13:20:48;;;;;;;0.98;0.98;;;33.50;52.10;;;;;;5073395;28;20403;-82
2022/08/04 13:23:17;;;;;;;1.42;0.85;;;33.40;53.00;;;;;;5073263;28;20207;-82
2022/08/04 13:25:46;;;;;;;1.15;1.05;;;33.60;52.80;;;;;;5073540;28;20202;-82
2022/08/04 13:28:16;;;;;;;1.08;0.98;;;33.60;52.30;;;;;;5073573;28;20203;-83